メインページ
METAR-TAF:

METAR-TAF

空港 :

Lavan Island, イラン

緯度: 26-48-37N, 経度: 53-21-22E, 海抜: 23m

現時点の気象観測

当レポートは3時間35分前の15:00(UTC)に作成
の風 8kt
気温 23°C
湿度 65%
気圧 1016 hPa
視程: 5000m
高度3000ftの雲はほとんどない, 積乱雲.
高度10000ftの雲は散在している
煙霧

METAR: OIBV 171500Z 09008KT 5000 HZ FEW030CB SCT100 23/16 Q1016

時間: 22:05 (18:35 UTC)


TAF: 見つかりません

4,000以上の空港の気象観測と天気予報(METAR報とTAF報)

利用可能な観測所は地図上に黄色い丸と赤い丸で示す。

丸の上にカーソルを重ねると観測所名を参照できる。

次にクリックすると気象観測と天気予報を参照できる。

マップの切り替え:黒色「×」印の緑ボタンをクリックして拡大、「-」印の緑ボタンをクリックして縮小、緑色の三角印をクリックして隣りの地図に切り替え


METAR-TAF: